Time;durP1;ratioP1;P1;durP2;ratioP2;P2;SDS_P1;SDS_P2;PMS_P1;PMS_P2;Temp;Humidity;BMP_temperature;BMP_pressure;BME280_temperature;BME280_humidity;BME280_pressure;Samples;Min_cycle;Max_cycle;Signal;HPM_P1;HPM_P2
2024/04/18 00:01:57;;;;;;;4.83;3.60;;;5.20;99.90;;;;;;5210145;27;20293;-73
2024/04/18 00:04:23;;;;;;;5.50;3.80;;;5.30;99.90;;;;;;5210452;27;20229;-74
2024/04/18 00:06:48;;;;;;;4.30;3.90;;;5.40;99.90;;;;;;5203345;27;20609;-74
2024/04/18 00:09:14;;;;;;;4.10;3.80;;;5.30;99.90;;;;;;5188762;27;20297;-73
2024/04/18 00:11:39;;;;;;;3.70;3.40;;;5.40;99.90;;;;;;5210434;27;20280;-75
2024/04/18 00:14:05;;;;;;;3.70;3.23;;;5.30;99.90;;;;;;5209035;27;20617;-73
2024/04/18 00:16:30;;;;;;;4.30;3.90;;;5.30;99.90;;;;;;5209530;27;20280;-73
2024/04/18 00:18:56;;;;;;;5.63;4.60;;;5.30;99.90;;;;;;5211131;27;20261;-74
2024/04/18 00:21:21;;;;;;;5.20;4.70;;;5.30;99.90;;;;;;5210361;27;20271;-74
2024/04/18 00:23:47;;;;;;;4.73;4.30;;;5.20;99.90;;;;;;5209778;27;20225;-73
2024/04/18 00:26:12;;;;;;;4.93;4.43;;;5.30;99.90;;;;;;5210549;27;20309;-74
2024/04/18 00:28:38;;;;;;;4.30;3.77;;;5.30;99.90;;;;;;5210342;27;20264;-74
2024/04/18 00:31:03;;;;;;;4.53;3.73;;;5.30;99.90;;;;;;5208593;27;20253;-73
2024/04/18 00:33:29;;;;;;;7.00;5.10;;;5.30;99.90;;;;;;5209957;27;20237;-74
2024/04/18 00:35:54;;;;;;;3.93;3.60;;;5.40;99.90;;;;;;5210563;27;20719;-74
2024/04/18 00:38:20;;;;;;;4.67;4.17;;;5.40;99.90;;;;;;5208242;27;20356;-74
2024/04/18 00:40:46;;;;;;;3.40;3.10;;;5.50;99.90;;;;;;5208883;27;20229;-74
2024/04/18 00:43:11;;;;;;;3.90;3.60;;;5.40;99.90;;;;;;5210054;27;20249;-74
2024/04/18 00:45:37;;;;;;;5.17;4.13;;;5.40;99.90;;;;;;5209701;27;20517;-73
2024/04/18 00:48:03;;;;;;;6.50;4.00;;;5.50;99.90;;;;;;5209958;27;20668;-74
2024/04/18 00:50:29;;;;;;;6.80;3.43;;;5.50;99.90;;;;;;5209425;27;20336;-74
2024/04/18 00:52:54;;;;;;;4.80;4.40;;;5.50;99.90;;;;;;5220767;27;20463;-74
2024/04/18 00:55:20;;;;;;;5.73;4.10;;;5.40;99.90;;;;;;5243609;27;20346;-73
2024/04/18 00:57:46;;;;;;;5.50;4.80;;;5.30;99.90;;;;;;5231311;27;20279;-71
2024/04/18 01:00:12;;;;;;;5.87;4.37;;;5.30;99.90;;;;;;5208985;27;20461;-74
2024/04/18 01:02:38;;;;;;;6.80;4.50;;;5.30;99.90;;;;;;5209550;27;20241;-72
2024/04/18 01:05:04;;;;;;;4.80;4.17;;;5.30;99.90;;;;;;5210037;27;20593;-74
2024/04/18 01:07:30;;;;;;;4.77;4.37;;;5.40;99.90;;;;;;5210038;27;20343;-74
2024/04/18 01:09:55;;;;;;;6.87;4.63;;;5.40;99.90;;;;;;5209978;27;20221;-74
2024/04/18 01:12:21;;;;;;;5.80;5.20;;;5.40;99.90;;;;;;5210053;27;20237;-74
2024/04/18 01:14:46;;;;;;;6.00;4.80;;;5.30;99.90;;;;;;5210180;27;20245;-74
2024/04/18 01:17:12;;;;;;;4.50;4.10;;;5.30;99.90;;;;;;5209641;27;20217;-73
2024/04/18 01:19:38;;;;;;;4.20;3.80;;;5.40;99.90;;;;;;5208135;27;20799;-72
2024/04/18 01:22:04;;;;;;;4.67;4.17;;;5.40;99.90;;;;;;5208844;27;20268;-74
2024/04/18 01:24:30;;;;;;;6.30;4.27;;;5.30;99.90;;;;;;5212711;27;20473;-74
2024/04/18 01:26:56;;;;;;;5.00;4.50;;;5.40;99.90;;;;;;5209719;27;20260;-74
2024/04/18 01:29:21;;;;;;;5.77;4.80;;;5.40;99.90;;;;;;5209969;27;20473;-74
2024/04/18 01:31:47;;;;;;;3.77;3.30;;;5.50;99.90;;;;;;5209175;27;20765;-73
2024/04/18 01:34:12;;;;;;;3.80;3.03;;;5.50;99.90;;;;;;5209399;27;20246;-74
2024/04/18 01:36:38;;;;;;;2.70;2.33;;;5.50;99.90;;;;;;5209759;27;20217;-74
2024/04/18 01:39:03;;;;;;;3.50;3.20;;;5.40;99.90;;;;;;5209783;27;20260;-73
2024/04/18 01:41:30;;;;;;;3.87;3.37;;;5.50;99.90;;;;;;5209649;27;20553;-74
2024/04/18 01:43:55;;;;;;;3.93;3.10;;;5.50;99.90;;;;;;5209442;27;20233;-74
2024/04/18 01:46:21;;;;;;;4.13;3.73;;;5.50;99.90;;;;;;5209579;27;20585;-74
2024/04/18 01:48:46;;;;;;;5.17;3.47;;;5.50;99.90;;;;;;5209028;27;20237;-73
2024/04/18 01:51:12;;;;;;;4.30;3.90;;;5.50;99.90;;;;;;5207436;27;20765;-74
2024/04/18 01:53:38;;;;;;;4.00;3.60;;;5.60;99.90;;;;;;5209749;27;20225;-74
2024/04/18 01:56:04;;;;;;;3.33;3.03;;;5.60;99.90;;;;;;5290820;22;20915;-68
2024/04/18 01:58:29;;;;;;;3.07;2.87;;;5.60;99.90;;;;;;5308124;27;20683;-68
2024/04/18 02:00:55;;;;;;;3.60;3.30;;;5.60;99.90;;;;;;5310233;26;20866;-68
2024/04/18 02:03:20;;;;;;;2.93;2.40;;;5.60;99.90;;;;;;5311153;26;20225;-68
2024/04/18 02:05:46;;;;;;;3.10;2.87;;;5.50;99.90;;;;;;5313261;26;20758;-68
2024/04/18 02:08:11;;;;;;;3.90;2.37;;;5.60;99.90;;;;;;5297872;26;20623;-68
2024/04/18 02:10:37;;;;;;;2.30;2.10;;;5.60;99.90;;;;;;5280794;27;20231;-68
2024/04/18 02:13:02;;;;;;;3.10;2.57;;;5.60;99.90;;;;;;5299933;26;20767;-68
2024/04/18 02:15:29;;;;;;;7.17;2.40;;;5.70;99.90;;;;;;5284200;27;20277;-68
2024/04/18 02:17:55;;;;;;;3.70;3.40;;;5.70;99.90;;;;;;5313022;26;20224;-68
2024/04/18 02:20:20;;;;;;;4.67;4.13;;;5.80;99.90;;;;;;5309110;26;20513;-68
2024/04/18 02:22:46;;;;;;;4.80;4.40;;;5.80;99.90;;;;;;5309829;26;20215;-68
2024/04/18 02:25:12;;;;;;;4.83;4.20;;;5.80;99.90;;;;;;5291270;26;20263;-70
2024/04/18 02:27:41;;;;;;;3.90;3.50;;;5.70;99.90;;;;;;5279128;27;20306;-70
2024/04/18 02:30:09;;;;;;;3.87;3.57;;;5.60;99.90;;;;;;5287981;27;20561;-70
2024/04/18 02:32:35;;;;;;;4.53;4.13;;;5.60;99.90;;;;;;5279057;27;20982;-70
2024/04/18 02:35:01;;;;;;;4.20;3.87;;;5.60;99.90;;;;;;5281517;27;20477;-70
2024/04/18 02:37:27;;;;;;;4.07;3.67;;;5.50;99.90;;;;;;5280980;27;20510;-70
2024/04/18 02:39:52;;;;;;;5.50;4.60;;;5.60;99.90;;;;;;5281018;27;20721;-70
2024/04/18 02:42:18;;;;;;;6.17;4.53;;;5.60;99.90;;;;;;5307759;27;20265;-70
2024/04/18 02:44:44;;;;;;;4.90;4.30;;;5.70;99.90;;;;;;5300821;26;20689;-70
2024/04/18 02:47:09;;;;;;;4.07;3.17;;;5.70;99.90;;;;;;5307602;27;20269;-70
2024/04/18 02:49:35;;;;;;;4.23;3.23;;;5.70;99.90;;;;;;5309547;26;20716;-70
2024/04/18 02:52:01;;;;;;;3.10;2.80;;;5.60;99.90;;;;;;5311353;27;20218;-70
2024/04/18 02:54:26;;;;;;;3.47;3.17;;;5.70;99.90;;;;;;5312989;26;20225;-70
2024/04/18 02:56:52;;;;;;;4.20;2.80;;;5.70;99.90;;;;;;5309815;26;20272;-70
2024/04/18 02:59:17;;;;;;;6.40;2.73;;;5.70;99.90;;;;;;5304578;26;20313;-70
2024/04/18 03:01:43;;;;;;;3.43;3.13;;;5.60;99.90;;;;;;5291272;26;20334;-70
2024/04/18 03:04:08;;;;;;;3.23;2.93;;;5.70;99.90;;;;;;5310894;26;20242;-70
2024/04/18 03:06:34;;;;;;;3.90;3.50;;;5.70;99.90;;;;;;5286737;26;20266;-70
2024/04/18 03:08:59;;;;;;;3.30;2.70;;;5.80;99.90;;;;;;5280640;27;20227;-70
2024/04/18 03:11:25;;;;;;;3.93;3.53;;;5.70;99.90;;;;;;5320679;26;20214;-70
2024/04/18 03:13:51;;;;;;;3.80;2.80;;;5.80;99.90;;;;;;5345994;26;20205;-70
2024/04/18 03:16:17;;;;;;;3.43;3.13;;;5.70;99.90;;;;;;5311052;26;20268;-70
2024/04/18 03:18:42;;;;;;;3.30;2.70;;;5.80;99.90;;;;;;5293762;26;20462;-70
2024/04/18 03:21:08;;;;;;;3.47;3.17;;;5.70;99.90;;;;;;5283619;27;20219;-70
2024/04/18 03:23:34;;;;;;;3.07;2.53;;;5.60;99.90;;;;;;5311493;26;20336;-69
2024/04/18 03:25:59;;;;;;;3.50;3.20;;;5.50;99.90;;;;;;5297692;26;20283;-69
2024/04/18 03:28:25;;;;;;;3.87;3.57;;;5.40;99.90;;;;;;5300275;27;20226;-69
2024/04/18 03:30:50;;;;;;;3.63;3.33;;;5.30;99.90;;;;;;5299135;26;20297;-69
2024/04/18 03:33:16;;;;;;;3.20;3.00;;;5.30;99.90;;;;;;5309532;26;20222;-70
2024/04/18 03:35:41;;;;;;;4.10;3.60;;;5.10;99.90;;;;;;5310326;26;20265;-69
2024/04/18 03:38:07;;;;;;;4.47;3.10;;;5.00;99.90;;;;;;5306711;26;20226;-69
2024/04/18 03:40:32;;;;;;;4.43;4.03;;;5.00;99.90;;;;;;5303787;27;20257;-70
2024/04/18 03:42:58;;;;;;;3.97;3.60;;;4.90;99.90;;;;;;5319880;26;20280;-69
2024/04/18 03:45:23;;;;;;;4.27;3.70;;;4.80;99.90;;;;;;5346572;26;20244;-69
2024/04/18 03:47:52;;;;;;;4.30;3.90;;;4.80;99.90;;;;;;5326179;26;20218;-69
2024/04/18 03:50:18;;;;;;;5.27;4.77;;;4.80;99.90;;;;;;5310915;26;20276;-69
2024/04/18 03:52:44;;;;;;;4.47;4.17;;;4.80;99.90;;;;;;5292959;26;20525;-70
2024/04/18 03:55:10;;;;;;;4.43;4.10;;;4.80;99.90;;;;;;5278000;27;20522;-70
2024/04/18 03:57:35;;;;;;;3.83;3.23;;;4.80;99.90;;;;;;5285885;27;20610;-70
2024/04/18 04:00:02;;;;;;;4.27;3.80;;;4.90;99.90;;;;;;5306705;26;20223;-69
2024/04/18 04:02:29;;;;;;;4.57;4.13;;;4.90;99.90;;;;;;5278355;27;20270;-70
2024/04/18 04:04:55;;;;;;;3.67;3.37;;;4.90;99.90;;;;;;5296799;27;20876;-69
2024/04/18 04:07:21;;;;;;;4.70;4.30;;;5.00;99.90;;;;;;5306243;26;20574;-69
2024/04/18 04:09:46;;;;;;;6.00;4.60;;;5.00;99.90;;;;;;5279385;26;20732;-70
2024/04/18 04:12:12;;;;;;;4.13;3.70;;;5.00;99.90;;;;;;5305957;27;20380;-69
2024/04/18 04:14:37;;;;;;;7.17;5.77;;;4.90;99.90;;;;;;5278214;27;20786;-69
2024/04/18 04:17:03;;;;;;;4.53;4.13;;;5.00;99.90;;;;;;5305006;27;20320;-70
2024/04/18 04:19:28;;;;;;;5.03;3.90;;;4.90;99.90;;;;;;5310598;26;20651;-69
2024/04/18 04:21:54;;;;;;;5.13;4.67;;;4.90;99.90;;;;;;5283450;26;20266;-70
2024/04/18 04:24:19;;;;;;;5.10;4.70;;;5.00;99.90;;;;;;5279604;27;20223;-70
2024/04/18 04:26:45;;;;;;;4.57;4.17;;;5.00;99.90;;;;;;5304220;27;20340;-69
2024/04/18 04:29:10;;;;;;;4.23;3.80;;;5.00;99.90;;;;;;5311389;26;20555;-69
2024/04/18 04:31:37;;;;;;;4.80;4.40;;;5.00;99.90;;;;;;5309167;26;20238;-69
2024/04/18 04:34:02;;;;;;;4.70;4.30;;;5.00;99.90;;;;;;5309866;26;20520;-70
2024/04/18 04:36:28;;;;;;;4.80;4.40;;;5.00;99.90;;;;;;5311208;26;20234;-70
2024/04/18 04:38:53;;;;;;;5.00;4.60;;;5.00;99.90;;;;;;5308499;26;20230;-70
2024/04/18 04:41:19;;;;;;;5.13;4.73;;;5.00;99.90;;;;;;5310664;26;20230;-70
2024/04/18 04:43:44;;;;;;;6.00;5.40;;;5.00;99.90;;;;;;5284799;26;20277;-70
2024/04/18 04:46:10;;;;;;;4.90;4.50;;;5.00;99.90;;;;;;5293614;27;20231;-69
2024/04/18 04:48:36;;;;;;;5.50;5.00;;;5.20;99.90;;;;;;5277192;27;20341;-70
2024/04/18 04:51:03;;;;;;;5.37;4.77;;;5.20;99.90;;;;;;5301544;27;20681;-69
2024/04/18 04:53:29;;;;;;;4.80;4.33;;;5.30;99.90;;;;;;5293022;26;20798;-70
2024/04/18 04:55:54;;;;;;;4.87;4.47;;;5.30;99.90;;;;;;5305396;27;20521;-70
2024/04/18 04:58:20;;;;;;;5.10;4.60;;;5.40;99.90;;;;;;5290384;26;20621;-70
2024/04/18 05:00:46;;;;;;;6.57;5.97;;;5.50;99.90;;;;;;5299888;26;20217;-70
2024/04/18 05:03:12;;;;;;;5.60;5.07;;;5.50;99.90;;;;;;5294703;26;20586;-70
2024/04/18 05:05:42;;;;;;;9.40;5.63;;;5.60;99.90;;;;;;5304038;27;20226;-70
2024/04/18 05:08:07;;;;;;;7.20;6.10;;;5.60;99.90;;;;;;5309782;26;20321;-70
2024/04/18 05:10:37;;;;;;;6.40;5.80;;;5.70;99.90;;;;;;5276865;26;20586;-69
2024/04/18 05:13:03;;;;;;;4.50;4.10;;;5.70;99.90;;;;;;5310104;27;20264;-70
2024/04/18 05:15:28;;;;;;;5.60;5.10;;;5.80;99.90;;;;;;5310861;26;20465;-70
2024/04/18 05:17:54;;;;;;;6.93;5.73;;;5.80;99.90;;;;;;5310797;26;20618;-70
2024/04/18 05:20:19;;;;;;;7.13;6.53;;;5.90;99.90;;;;;;5313579;26;20228;-70
2024/04/18 05:22:45;;;;;;;8.10;7.40;;;5.80;99.90;;;;;;5345072;26;20224;-70
2024/04/18 05:25:10;;;;;;;6.90;6.20;;;5.90;99.90;;;;;;5310822;26;20281;-70
2024/04/18 05:27:42;;;;;;;6.57;5.83;;;5.90;99.90;;;;;;5289252;27;20795;-70
2024/04/18 05:32:53;;;;;;;6.37;5.70;;;5.90;99.90;;;;;;5294599;26;20511;-69
2024/04/18 05:35:18;;;;;;;7.33;6.70;;;6.00;99.90;;;;;;5336764;26;20823;-70
2024/04/18 05:37:44;;;;;;;6.43;5.93;;;6.00;99.90;;;;;;5309605;26;20210;-70
2024/04/18 05:40:10;;;;;;;7.07;6.47;;;6.00;99.90;;;;;;5304442;26;20365;-70
2024/04/18 05:42:35;;;;;;;7.73;6.83;;;5.80;99.90;;;;;;5276905;27;20317;-70
2024/04/18 05:45:00;;;;;;;8.30;7.50;;;5.80;99.90;;;;;;5292837;26;20221;-70
2024/04/18 05:47:26;;;;;;;9.00;8.07;;;5.80;99.90;;;;;;5310228;26;20269;-70
2024/04/18 05:49:52;;;;;;;10.23;7.93;;;5.80;99.90;;;;;;5341897;26;20703;-70
2024/04/18 05:52:17;;;;;;;8.10;7.30;;;5.90;99.90;;;;;;5320055;26;20221;-69
2024/04/18 05:54:42;;;;;;;7.93;7.10;;;6.00;99.90;;;;;;5344857;26;20694;-69
2024/04/18 05:57:08;;;;;;;9.07;8.17;;;6.00;99.90;;;;;;5342830;26;20696;-70
2024/04/18 05:59:34;;;;;;;7.53;6.83;;;6.00;99.90;;;;;;5310287;26;20264;-69
2024/04/18 06:01:59;;;;;;;8.13;7.33;;;6.10;99.90;;;;;;5310251;26;20241;-70
2024/04/18 06:04:24;;;;;;;9.10;8.20;;;6.10;99.90;;;;;;5307677;26;20231;-70
2024/04/18 06:06:50;;;;;;;7.93;7.13;;;6.20;99.90;;;;;;5303279;26;20217;-70
2024/04/18 06:09:16;;;;;;;9.10;8.20;;;6.30;99.90;;;;;;5344808;26;20213;-69
2024/04/18 06:11:45;;;;;;;8.63;7.83;;;6.30;99.90;;;;;;5344346;26;20213;-70
2024/04/18 06:14:11;;;;;;;8.90;8.00;;;6.30;99.90;;;;;;5291018;26;20336;-69
2024/04/18 06:16:37;;;;;;;9.60;8.70;;;6.40;99.90;;;;;;5289026;26;20490;-70
2024/04/18 06:19:03;;;;;;;9.53;8.10;;;6.40;99.90;;;;;;5284854;27;20323;-69
2024/04/18 06:21:28;;;;;;;11.40;10.20;;;6.40;99.90;;;;;;5302889;26;20343;-69
2024/04/18 06:23:54;;;;;;;9.53;8.50;;;6.40;99.90;;;;;;5296566;26;20465;-69
2024/04/18 06:26:21;;;;;;;8.40;7.60;;;6.10;99.90;;;;;;5285549;27;20226;-69
2024/04/18 06:28:47;;;;;;;9.77;8.80;;;6.00;99.90;;;;;;5298458;26;20270;-69
2024/04/18 06:31:13;;;;;;;7.93;7.23;;;6.10;99.90;;;;;;5297662;26;20462;-69
2024/04/18 06:33:38;;;;;;;9.27;8.37;;;6.10;99.90;;;;;;5275615;27;20454;-69
2024/04/18 06:36:04;;;;;;;9.07;8.17;;;6.20;99.90;;;;;;5288409;26;20519;-69
2024/04/18 06:38:30;;;;;;;8.40;7.60;;;6.40;99.90;;;;;;5297038;26;20274;-69
2024/04/18 06:40:55;;;;;;;8.83;7.97;;;6.50;99.90;;;;;;5298226;26;20274;-69
2024/04/18 06:43:21;;;;;;;8.90;8.00;;;6.50;99.90;;;;;;5288812;26;20401;-69
2024/04/18 06:45:46;;;;;;;8.40;7.70;;;6.70;99.90;;;;;;5290914;27;20231;-69
2024/04/18 06:48:12;;;;;;;7.23;6.63;;;6.80;99.90;;;;;;5302043;26;20247;-70
2024/04/18 06:50:38;;;;;;;8.57;7.70;;;6.90;99.90;;;;;;5320420;26;20226;-69
2024/04/18 06:53:05;;;;;;;8.23;7.53;;;6.80;99.90;;;;;;5297758;26;20386;-69
2024/04/18 06:55:37;;;;;;;7.10;6.50;;;6.90;99.90;;;;;;5299669;27;20572;-69
2024/04/18 06:58:02;;;;;;;7.90;7.30;;;6.90;99.90;;;;;;5294275;27;20513;-69
2024/04/18 07:00:28;;;;;;;8.60;7.90;;;6.60;99.90;;;;;;5286898;27;20780;-69
2024/04/18 07:02:54;;;;;;;8.10;7.30;;;6.80;99.90;;;;;;5290361;27;20239;-69
2024/04/18 07:05:20;;;;;;;8.27;7.47;;;6.80;99.90;;;;;;5282219;27;20614;-69
2024/04/18 07:07:46;;;;;;;9.50;7.87;;;6.90;99.90;;;;;;5287484;27;20282;-69
2024/04/18 07:10:14;;;;;;;8.13;7.50;;;6.90;99.90;;;;;;5290212;26;20970;-69
2024/04/18 07:12:40;;;;;;;7.63;7.00;;;7.00;99.90;;;;;;5304885;26;20218;-69
2024/04/18 07:15:05;;;;;;;7.00;6.40;;;7.00;99.90;;;;;;5295314;26;20613;-69
2024/04/18 07:17:31;;;;;;;7.60;6.90;;;6.90;99.90;;;;;;5295046;27;20230;-69
2024/04/18 07:19:57;;;;;;;7.57;6.87;;;6.80;99.90;;;;;;5287916;26;20222;-69
2024/04/18 07:22:22;;;;;;;8.33;7.13;;;6.70;99.90;;;;;;5290904;26;20509;-69
2024/04/18 07:24:49;;;;;;;7.77;6.33;;;6.60;99.90;;;;;;5304056;27;20266;-70
2024/04/18 07:27:15;;;;;;;5.17;4.77;;;6.50;99.90;;;;;;5311552;26;20560;-69
2024/04/18 07:29:40;;;;;;;5.10;4.70;;;6.30;99.90;;;;;;5298926;26;20465;-70
2024/04/18 07:32:07;;;;;;;4.57;4.23;;;6.20;99.90;;;;;;5299318;26;20562;-69
2024/04/18 07:34:33;;;;;;;3.90;3.60;;;6.10;99.90;;;;;;5316440;26;20561;-69
2024/04/18 07:36:58;;;;;;;4.03;3.73;;;6.10;99.90;;;;;;5297520;26;20458;-69
2024/04/18 07:39:25;;;;;;;3.50;3.20;;;6.20;99.90;;;;;;5280543;27;20458;-69
2024/04/18 07:41:50;;;;;;;3.43;2.90;;;6.20;99.90;;;;;;5286442;26;20274;-69
2024/04/18 07:44:16;;;;;;;2.87;2.67;;;6.10;99.90;;;;;;5283540;26;20465;-70
2024/04/18 07:46:41;;;;;;;3.67;3.47;;;6.20;99.90;;;;;;5305775;26;20222;-69
2024/04/18 07:49:08;;;;;;;3.00;2.77;;;6.10;99.90;;;;;;5298350;26;20264;-69
2024/04/18 07:51:35;;;;;;;2.80;2.60;;;6.10;99.90;;;;;;5302124;26;20732;-70
2024/04/18 07:54:00;;;;;;;3.53;3.30;;;6.10;99.90;;;;;;5280379;27;20446;-69
2024/04/18 07:56:26;;;;;;;5.00;4.50;;;6.20;99.90;;;;;;5282672;27;20521;-68
2024/04/18 07:58:51;;;;;;;5.00;4.60;;;6.20;99.90;;;;;;5288428;26;20268;-68
2024/04/18 08:01:17;;;;;;;4.27;3.87;;;6.10;99.90;;;;;;5281825;26;20222;-69
2024/04/18 08:03:42;;;;;;;4.40;4.00;;;6.10;99.90;;;;;;5284205;26;20215;-68
2024/04/18 08:06:08;;;;;;;4.30;3.90;;;6.10;99.90;;;;;;5304986;27;20301;-68
2024/04/18 08:08:33;;;;;;;3.60;3.30;;;6.30;99.90;;;;;;5282932;27;20235;-69
2024/04/18 08:10:59;;;;;;;4.40;4.00;;;6.40;99.90;;;;;;5291388;27;20230;-68
2024/04/18 08:13:24;;;;;;;3.50;3.20;;;6.50;99.90;;;;;;5315687;26;20290;-68
2024/04/18 08:15:50;;;;;;;4.90;4.50;;;6.60;99.90;;;;;;5299844;26;20321;-70
2024/04/18 08:18:16;;;;;;;5.70;5.20;;;6.70;99.90;;;;;;5280273;27;20362;-68
2024/04/18 08:20:46;;;;;;;6.10;5.57;;;6.90;99.90;;;;;;5278320;27;20262;-69
2024/04/18 08:23:11;;;;;;;6.83;4.60;;;6.90;99.90;;;;;;5286999;26;20457;-68
2024/04/18 08:25:37;;;;;;;7.10;4.57;;;7.10;99.90;;;;;;5291963;27;20453;-68
2024/04/18 08:28:04;;;;;;;5.97;5.47;;;7.40;99.90;;;;;;5310587;26;20226;-68
2024/04/18 08:30:29;;;;;;;5.00;4.33;;;7.70;99.90;;;;;;5296028;26;20231;-68
2024/04/18 08:32:55;;;;;;;5.23;4.83;;;7.90;99.90;;;;;;5310686;26;20457;-68
2024/04/18 08:35:20;;;;;;;5.60;5.10;;;8.20;99.90;;;;;;5297703;26;20266;-69
2024/04/18 08:37:46;;;;;;;5.63;5.17;;;8.40;99.90;;;;;;5277917;27;20223;-68
2024/04/18 08:40:11;;;;;;;6.10;4.80;;;8.60;99.90;;;;;;5303410;27;20304;-68
2024/04/18 08:42:37;;;;;;;6.00;5.50;;;8.30;99.90;;;;;;5290050;27;20353;-68
2024/04/18 08:45:07;;;;;;;6.63;5.63;;;8.20;99.90;;;;;;5297075;26;20233;-68
2024/04/18 08:47:34;;;;;;;5.47;5.10;;;8.20;99.90;;;;;;5308184;26;20563;-70
2024/04/18 08:50:00;;;;;;;5.67;5.27;;;8.10;99.90;;;;;;5305289;27;20461;-69
2024/04/18 08:52:30;;;;;;;5.30;4.80;;;8.10;99.90;;;;;;5284106;26;20520;-69
2024/04/18 08:54:56;;;;;;;6.23;5.70;;;8.00;99.90;;;;;;5289776;26;20470;-69
2024/04/18 08:57:25;;;;;;;5.73;5.33;;;7.90;99.90;;;;;;5285954;27;20925;-68
2024/04/18 08:59:56;;;;;;;5.97;5.47;;;7.90;99.90;;;;;;5277754;27;20458;-69
2024/04/18 09:02:22;;;;;;;5.67;5.20;;;7.90;99.90;;;;;;5277882;27;20451;-69
2024/04/18 09:04:48;;;;;;;5.07;4.67;;;7.90;99.90;;;;;;5278271;27;20517;-67
2024/04/18 09:07:14;;;;;;;5.70;5.20;;;7.90;99.90;;;;;;5295634;27;20505;-68
2024/04/18 09:09:40;;;;;;;6.00;5.50;;;8.00;99.90;;;;;;5296024;26;20279;-69
2024/04/18 09:12:06;;;;;;;6.03;5.13;;;7.90;99.90;;;;;;5302525;26;20230;-69
2024/04/18 09:14:32;;;;;;;6.30;5.90;;;8.00;99.90;;;;;;5296105;26;20463;-69
2024/04/18 09:16:57;;;;;;;5.33;4.93;;;8.00;99.90;;;;;;5283689;26;20509;-67
2024/04/18 09:19:24;;;;;;;5.47;4.97;;;8.10;99.90;;;;;;5295260;27;20986;-69
2024/04/18 09:21:50;;;;;;;5.50;5.10;;;8.20;99.90;;;;;;5284152;26;20273;-68
2024/04/18 09:24:15;;;;;;;5.17;4.67;;;8.30;99.90;;;;;;5303062;27;20993;-68
2024/04/18 09:26:41;;;;;;;5.87;5.37;;;8.60;99.90;;;;;;5299482;26;20273;-69
2024/04/18 09:29:06;;;;;;;5.40;4.90;;;8.70;99.90;;;;;;5281516;27;20227;-68
2024/04/18 09:31:32;;;;;;;5.00;4.60;;;9.10;99.90;;;;;;5280637;26;20239;-68
2024/04/18 09:33:58;;;;;;;5.57;5.17;;;9.60;99.90;;;;;;5277718;27;20276;-69
2024/04/18 09:36:24;;;;;;;5.70;5.30;;;10.20;99.90;;;;;;5297570;26;20235;-69
2024/04/18 09:38:50;;;;;;;5.23;4.83;;;11.10;99.90;;;;;;5282469;27;20511;-69
2024/04/18 09:41:23;;;;;;;6.17;5.70;;;12.60;99.90;;;;;;5282750;27;20601;-68
2024/04/18 09:44:10;;;;;;;5.23;4.90;;;13.30;99.90;;;;;;5277760;27;20238;-68
2024/04/18 09:46:36;;;;;;;5.43;5.03;;;13.40;99.90;;;;;;5279859;26;20454;-68
2024/04/18 09:49:02;;;;;;;6.97;6.47;;;12.80;99.90;;;;;;5277827;27;21079;-63
2024/04/18 09:51:28;;;;;;;6.50;6.00;;;12.90;99.90;;;;;;5298312;27;20512;-62
2024/04/18 09:53:55;;;;;;;6.53;6.03;;;12.80;99.90;;;;;;5294020;26;20529;-62
2024/04/18 09:56:23;;;;;;;5.27;4.97;;;13.60;99.90;;;;;;5294582;26;20260;-61
2024/04/18 09:58:50;;;;;;;4.73;4.43;;;15.10;99.90;;;;;;5286155;27;20567;-62
2024/04/18 10:01:17;;;;;;;4.73;4.33;;;17.00;98.20;;;;;;5305773;26;20757;-61
2024/04/18 10:03:44;;;;;;;4.90;4.50;;;17.80;87.80;;;;;;5283456;26;20514;-61
2024/04/18 10:06:11;;;;;;;5.07;4.67;;;15.70;92.30;;;;;;5303885;27;20557;-62
2024/04/18 10:08:40;;;;;;;4.77;4.37;;;14.50;97.30;;;;;;5291431;26;20497;-61
2024/04/18 10:11:07;;;;;;;4.33;4.13;;;14.10;98.80;;;;;;5283073;27;20518;-64
2024/04/18 10:13:32;;;;;;;4.70;4.30;;;14.10;99.90;;;;;;5280083;27;20458;-64
2024/04/18 10:16:10;;;;;;;4.90;4.50;;;14.90;99.90;;;;;;5288897;27;20503;-64
2024/04/18 10:18:36;;;;;;;5.33;4.93;;;14.60;95.20;;;;;;5305556;26;20647;-68
2024/04/18 10:21:16;;;;;;;6.80;5.17;;;14.70;96.90;;;;;;5303474;26;20523;-68
2024/04/18 10:24:01;;;;;;;5.77;5.13;;;14.90;99.70;;;;;;5296077;27;20818;-65
2024/04/18 10:26:31;;;;;;;6.10;5.67;;;14.70;97.10;;;;;;5279300;27;20466;-67
2024/04/18 10:28:57;;;;;;;5.90;5.17;;;14.60;97.70;;;;;;5303159;26;20527;-68
2024/04/18 10:31:30;;;;;;;5.77;5.27;;;13.80;99.90;;;;;;5309623;26;20467;-68
2024/04/18 10:33:57;;;;;;;5.33;4.90;;;12.90;99.90;;;;;;5334868;26;20734;-67
2024/04/18 10:36:24;;;;;;;4.53;4.13;;;11.40;99.90;;;;;;5288262;26;20506;-68
2024/04/18 10:38:49;;;;;;;3.20;2.90;;;10.20;99.90;;;;;;5322695;26;20504;-67
2024/04/18 10:41:17;;;;;;;3.67;3.23;;;9.20;99.90;;;;;;5293379;26;20468;-69
2024/04/18 10:43:43;;;;;;;3.57;3.23;;;8.50;99.90;;;;;;5303674;27;20218;-69
2024/04/18 10:46:10;;;;;;;2.77;2.57;;;8.00;99.90;;;;;;5284269;26;20466;-68
2024/04/18 10:48:36;;;;;;;3.00;2.80;;;7.80;99.90;;;;;;5304113;26;20449;-68
2024/04/18 10:51:03;;;;;;;2.50;2.30;;;7.80;99.90;;;;;;5304368;26;20924;-69
2024/04/18 10:53:29;;;;;;;2.57;2.37;;;7.70;99.90;;;;;;5291237;26;20507;-67
2024/04/18 10:55:55;;;;;;;2.60;2.40;;;7.90;99.90;;;;;;5278613;27;20463;-68
2024/04/18 10:58:21;;;;;;;3.00;2.80;;;8.40;99.90;;;;;;5292762;27;20458;-67
2024/04/18 11:00:47;;;;;;;4.00;3.70;;;9.00;99.90;;;;;;5304048;26;20636;-67
2024/04/18 11:03:12;;;;;;;4.40;4.10;;;9.90;99.90;;;;;;5285870;26;20573;-68
2024/04/18 11:05:40;;;;;;;4.43;4.03;;;10.50;99.90;;;;;;5278675;27;20980;-69
2024/04/18 11:08:08;;;;;;;3.97;3.67;;;10.80;99.90;;;;;;5304383;27;20218;-67
2024/04/18 11:10:35;;;;;;;3.63;2.77;;;11.80;99.90;;;;;;5290666;26;20464;-68
2024/04/18 11:13:02;;;;;;;3.47;3.27;;;12.00;99.90;;;;;;5299629;26;20522;-67
2024/04/18 11:15:29;;;;;;;5.70;3.23;;;12.10;99.90;;;;;;5293564;27;20465;-68
2024/04/18 11:17:55;;;;;;;3.60;3.40;;;12.40;99.90;;;;;;5295849;26;20580;-68
2024/04/18 11:20:20;;;;;;;3.20;3.00;;;12.40;99.90;;;;;;5285467;26;20860;-68
2024/04/18 11:22:46;;;;;;;4.00;3.70;;;12.80;99.90;;;;;;5291088;26;20572;-68
2024/04/18 11:25:11;;;;;;;3.70;3.50;;;13.30;99.90;;;;;;5302663;27;20271;-68
2024/04/18 11:27:38;;;;;;;4.17;3.77;;;13.60;99.90;;;;;;5312987;26;20284;-68
2024/04/18 11:30:06;;;;;;;4.33;3.60;;;14.10;99.90;;;;;;5329715;26;20272;-69
2024/04/18 11:32:32;;;;;;;4.93;4.63;;;15.10;99.90;;;;;;5309346;26;20457;-68
2024/04/18 11:34:57;;;;;;;3.50;3.30;;;16.50;99.90;;;;;;5289322;26;20512;-69
2024/04/18 11:37:23;;;;;;;4.93;4.63;;;18.80;99.90;;;;;;5305545;27;20987;-70
2024/04/18 11:39:48;;;;;;;4.63;4.33;;;18.20;91.00;;;;;;5305588;26;20595;-68
2024/04/18 11:42:14;;;;;;;5.07;4.70;;;17.60;95.50;;;;;;5306584;26;20242;-68
2024/04/18 11:44:39;;;;;;;4.90;4.60;;;16.20;99.90;;;;;;5327339;26;20218;-69
2024/04/18 11:47:05;;;;;;;5.40;4.93;;;15.80;99.90;;;;;;5299028;26;20346;-69
2024/04/18 11:49:30;;;;;;;5.17;4.60;;;17.30;96.50;;;;;;5300144;27;20564;-69
2024/04/18 11:51:56;;;;;;;4.57;4.30;;;19.90;88.50;;;;;;5290063;26;20218;-70
2024/04/18 11:54:23;;;;;;;5.73;5.27;;;20.50;71.20;;;;;;5293136;26;20274;-68
2024/04/18 11:56:49;;;;;;;5.60;5.17;;;19.00;73.00;;;;;;5290241;27;20703;-69
2024/04/18 11:59:16;;;;;;;5.70;5.30;;;15.80;87.90;;;;;;5301844;26;20507;-68
2024/04/18 12:01:42;;;;;;;5.40;5.10;;;14.30;99.90;;;;;;5294139;26;20705;-68
2024/04/18 12:04:08;;;;;;;5.97;5.47;;;13.40;99.90;;;;;;5307925;26;20519;-68
2024/04/18 12:06:33;;;;;;;5.67;4.80;;;12.10;99.90;;;;;;5293555;26;20226;-70
2024/04/18 12:08:59;;;;;;;4.90;4.60;;;11.10;99.90;;;;;;5316252;26;20221;-68
2024/04/18 12:11:24;;;;;;;5.20;4.70;;;10.30;99.90;;;;;;5309919;26;20206;-69
2024/04/18 12:13:50;;;;;;;5.20;4.80;;;9.70;99.90;;;;;;5314225;26;20268;-69
2024/04/18 12:16:15;;;;;;;5.60;5.20;;;9.30;99.90;;;;;;5277941;27;20350;-68
2024/04/18 12:18:41;;;;;;;6.30;5.80;;;9.00;99.90;;;;;;5277816;27;20353;-69
2024/04/18 12:21:06;;;;;;;6.47;5.87;;;8.80;99.90;;;;;;5300083;27;20234;-70
2024/04/18 12:23:32;;;;;;;6.17;5.67;;;8.60;99.90;;;;;;5325763;26;20225;-68
2024/04/18 12:25:58;;;;;;;7.47;6.70;;;8.60;99.90;;;;;;5294721;26;20227;-69
2024/04/18 12:28:24;;;;;;;7.67;6.60;;;8.30;99.90;;;;;;5277423;27;20578;-68
2024/04/18 12:30:49;;;;;;;6.50;5.90;;;8.30;99.90;;;;;;5304967;27;20700;-69
2024/04/18 12:33:15;;;;;;;7.47;6.77;;;8.30;99.90;;;;;;5288092;26;20223;-68
2024/04/18 12:35:41;;;;;;;6.53;5.80;;;8.50;99.90;;;;;;5294986;26;20236;-68
2024/04/18 12:38:07;;;;;;;5.87;5.37;;;8.60;99.90;;;;;;5291126;27;20269;-69
2024/04/18 12:40:32;;;;;;;7.90;5.70;;;8.70;99.90;;;;;;5293212;27;20458;-70
2024/04/18 12:42:58;;;;;;;6.50;5.70;;;8.70;99.90;;;;;;5287071;27;20620;-69
2024/04/18 12:45:23;;;;;;;6.93;6.20;;;8.80;99.90;;;;;;5307554;26;20231;-69
2024/04/18 12:47:57;;;;;;;7.60;6.90;;;8.90;99.90;;;;;;5276857;27;20207;-69
2024/04/18 12:50:22;;;;;;;8.00;7.30;;;9.00;99.90;;;;;;5276785;27;20211;-69
2024/04/18 12:52:48;;;;;;;7.07;6.30;;;9.10;99.90;;;;;;5279654;27;20536;-69